Terminal Aerodrome Forecast
Issued by NWS

Home | Current Version | Previous Version | Text Only | Print | Product List | Glossary On
Versions: 1 2 3 4 5 6 7 8 9 10 11 12 13 14 15 16 17 18 19 20 21 22 23 24 25 26 27 28 29 30 31 32 33
000
FTUS46 KLOX 010300 AAC
TAFLAX
TAF AMD
KLAX 010336Z 0104/0206 25008KT 6SM -SHRA SCT022 BKN035 BKN100
     FM010700 08009KT 6SM -SHRA BR SCT025 OVC035
     FM011100 08007KT P6SM -SHRA VCTS SCT025CB BKN035 PROB30
      0113/0115 20020KT -TSRA OVC025CB
     FM011800 13005KT P6SM -SHRA SCT025 OVC040
     FM012000 24011KT P6SM -SHRA SCT025 OVC045
     FM020400 25006KT P6SM VCSH SCT025 BKN035=

USA.gov is the U.S. government's official web portal to all federal, state and local government web resources and services.